createdAt,value
2023-05-20T00:01:46.661Z,101934.22
2023-05-20T00:04:16.600Z,101943.66
2023-05-20T00:06:46.615Z,101941.78
2023-05-20T00:09:17.220Z,101956.47
2023-05-20T00:11:47.236Z,101952.97
2023-05-20T00:14:17.174Z,101956.28
2023-05-20T00:16:49.625Z,101952.69
2023-05-20T00:19:19.540Z,101945.72
2023-05-20T00:21:49.433Z,101944.09
2023-05-20T00:24:19.265Z,101944.94
2023-05-20T00:26:49.042Z,101953.50
2023-05-20T00:29:19.095Z,101914.19
2023-05-20T00:31:51.619Z,101946.16
2023-05-20T00:34:22.104Z,101920.50
2023-05-20T00:36:52.329Z,101955.19
2023-05-20T00:39:22.448Z,101948.97
2023-05-20T00:41:52.339Z,101943.44
2023-05-20T00:44:24.185Z,101924.00
2023-05-20T00:46:57.082Z,101949.56
2023-05-20T00:49:27.293Z,101926.00
2023-05-20T00:51:57.307Z,101922.56
2023-05-20T00:54:27.212Z,101929.66
2023-05-20T00:56:57.530Z,101926.88
2023-05-20T00:59:27.865Z,101899.31
2023-05-20T01:02:00.473Z,101916.56
2023-05-20T01:04:30.854Z,101913.31
2023-05-20T01:07:01.204Z,101926.59
2023-05-20T01:09:32.333Z,101911.94
2023-05-20T01:12:09.818Z,101934.56
2023-05-20T01:14:46.733Z,101910.38
2023-05-20T01:17:22.890Z,101929.44
2023-05-20T01:19:54.072Z,101883.34
2023-05-20T01:22:29.915Z,101925.06
2023-05-20T01:24:59.818Z,101914.41
2023-05-20T01:27:30.489Z,101884.81
2023-05-20T01:30:00.409Z,101901.19
2023-05-20T01:32:35.020Z,101926.03
2023-05-20T01:35:06.287Z,101917.31
2023-05-20T01:37:41.508Z,101899.78
2023-05-20T01:40:13.053Z,101840.53
2023-05-20T01:42:44.551Z,101891.78
2023-05-20T01:45:15.158Z,101920.91
2023-05-20T01:47:47.945Z,101885.16
2023-05-20T01:50:17.763Z,101903.47
2023-05-20T01:52:50.235Z,101894.81
2023-05-20T01:55:20.263Z,101905.22
2023-05-20T01:57:50.112Z,101901.31
2023-05-20T02:00:20.123Z,101894.63
2023-05-20T02:02:50.075Z,101888.06
2023-05-20T02:05:20.250Z,101909.56
2023-05-20T02:07:52.693Z,101900.94
2023-05-20T02:10:23.964Z,101910.38
2023-05-20T02:12:53.863Z,101924.31
2023-05-20T02:15:23.772Z,101909.72
2023-05-20T02:17:53.986Z,101915.03
2023-05-20T02:20:23.834Z,101917.63
2023-05-20T02:22:56.332Z,101916.72
2023-05-20T02:25:26.165Z,101883.63
2023-05-20T02:27:55.956Z,101923.53
2023-05-20T02:30:25.838Z,101909.72
2023-05-20T02:32:55.823Z,101921.88
2023-05-20T02:35:26.438Z,101922.50
2023-05-20T02:37:59.010Z,101907.41
2023-05-20T02:40:28.849Z,101915.09
2023-05-20T02:42:58.690Z,101908.78
2023-05-20T02:45:28.625Z,101907.34
2023-05-20T02:47:58.475Z,101917.47
2023-05-20T02:50:28.799Z,101887.59
2023-05-20T02:53:01.220Z,101912.88
2023-05-20T02:55:31.170Z,101900.66
2023-05-20T02:58:01.173Z,101872.91
2023-05-20T03:00:31.696Z,101884.31
2023-05-20T03:03:01.791Z,101905.72
2023-05-20T03:05:32.952Z,101903.63
2023-05-20T03:08:05.605Z,101876.50
2023-05-20T03:10:35.458Z,101849.03
2023-05-20T03:13:05.432Z,101885.50
2023-05-20T03:15:35.528Z,101905.09
2023-05-20T03:18:06.104Z,101908.28
2023-05-20T03:20:37.020Z,101897.94
2023-05-20T03:23:09.832Z,101906.22
2023-05-20T03:25:40.379Z,101916.63
2023-05-20T03:28:10.214Z,101895.88
2023-05-20T03:30:41.130Z,101919.81
2023-05-20T03:33:11.054Z,101900.69
2023-05-20T03:35:40.976Z,101918.78
2023-05-20T03:38:13.385Z,101930.91
2023-05-20T03:40:43.224Z,101907.16
2023-05-20T03:43:13.196Z,101873.81
2023-05-20T03:45:42.991Z,101894.97
2023-05-20T03:48:12.794Z,101911.25
2023-05-20T03:50:46.300Z,101907.16
2023-05-20T03:53:20.385Z,101915.00
2023-05-20T03:55:50.212Z,101925.22
2023-05-20T03:58:20.922Z,101916.38
2023-05-20T04:00:51.786Z,101919.22
2023-05-20T04:03:23.169Z,101922.38
2023-05-20T04:05:53.258Z,101923.38
2023-05-20T04:08:27.856Z,101922.03
2023-05-20T04:10:59.370Z,101915.88
2023-05-20T04:13:29.187Z,101915.00
2023-05-20T04:15:58.944Z,101887.94
2023-05-20T04:18:30.060Z,101917.53
2023-05-20T04:21:01.836Z,101919.28
2023-05-20T04:23:34.399Z,101863.25
2023-05-20T04:26:04.176Z,101903.38
2023-05-20T04:28:37.919Z,101921.13
2023-05-20T04:31:08.322Z,101907.16
2023-05-20T04:33:39.845Z,101877.28
2023-05-20T04:36:16.685Z,101884.41
2023-05-20T04:38:49.948Z,101917.75
2023-05-20T04:41:19.784Z,101925.25
2023-05-20T04:43:50.080Z,101926.94
2023-05-20T04:46:20.764Z,101913.50
2023-05-20T04:48:51.171Z,101918.31
2023-05-20T04:51:21.040Z,101915.06
2023-05-20T04:53:53.661Z,101905.88
2023-05-20T04:56:23.886Z,101888.13
2023-05-20T04:58:53.685Z,101896.13
2023-05-20T05:01:23.625Z,101896.44
2023-05-20T05:03:53.882Z,101915.38
2023-05-20T05:06:24.421Z,101918.88
2023-05-20T05:08:56.848Z,101912.31
2023-05-20T05:11:26.935Z,101905.69
2023-05-20T05:13:58.012Z,101893.16
2023-05-20T05:16:29.621Z,101888.25
2023-05-20T05:18:59.527Z,101898.50
2023-05-20T05:21:31.706Z,101865.03
2023-05-20T05:24:04.069Z,101846.47
2023-05-20T05:26:34.093Z,101885.94
2023-05-20T05:29:05.326Z,101873.53
2023-05-20T05:31:35.678Z,101857.50
2023-05-20T05:34:05.508Z,101886.16
2023-05-20T05:36:36.844Z,101890.44
2023-05-20T05:39:09.355Z,101873.56
2023-05-20T05:41:41.694Z,101893.00
2023-05-20T05:44:11.683Z,101830.69
2023-05-20T05:46:41.592Z,101852.88
2023-05-20T05:49:11.473Z,101883.22
2023-05-20T05:51:41.288Z,101872.84
2023-05-20T05:54:13.745Z,101882.50
2023-05-20T05:56:43.611Z,101883.63
2023-05-20T05:59:13.517Z,101874.63
2023-05-20T06:01:43.797Z,101884.09
2023-05-20T06:04:13.727Z,101881.25
2023-05-20T06:06:43.866Z,101852.94
2023-05-20T06:09:16.244Z,101875.63
2023-05-20T06:11:46.146Z,101902.56
2023-05-20T06:14:16.151Z,101886.50
2023-05-20T06:16:46.073Z,101889.19
2023-05-20T06:19:16.182Z,101881.19
2023-05-20T06:21:46.055Z,101897.72
2023-05-20T06:24:18.659Z,101894.47
2023-05-20T06:26:50.604Z,101883.84
2023-05-20T06:29:21.046Z,101888.31
2023-05-20T06:31:51.064Z,101890.28
2023-05-20T06:34:21.014Z,101892.34
2023-05-20T06:36:50.861Z,101875.78
2023-05-20T06:39:23.247Z,101863.44
2023-05-20T06:41:53.067Z,101824.09
2023-05-20T06:44:31.008Z,101870.00
2023-05-20T06:47:03.686Z,101868.25
2023-05-20T06:49:34.730Z,101872.38
2023-05-20T06:52:04.576Z,101853.44
2023-05-20T06:54:40.255Z,101870.00
2023-05-20T06:57:11.047Z,101882.03
2023-05-20T06:59:41.840Z,101877.09
2023-05-20T07:02:12.028Z,101856.50
2023-05-20T07:04:41.933Z,101872.91
2023-05-20T07:07:11.904Z,101832.38
2023-05-20T07:09:44.268Z,101857.00
2023-05-20T07:12:14.134Z,101836.72
2023-05-20T07:14:43.944Z,101855.13
2023-05-20T07:17:14.389Z,101854.78
2023-05-20T07:19:46.463Z,101851.00
2023-05-20T07:22:16.667Z,101851.97
2023-05-20T07:25:08.287Z,101845.44
2023-05-20T07:27:39.642Z,101834.97
2023-05-20T07:30:11.246Z,101846.25
2023-05-20T07:32:43.071Z,101849.91
2023-05-20T07:35:13.104Z,101854.16
2023-05-20T07:37:42.877Z,101844.50
2023-05-20T07:40:15.774Z,101824.31
2023-05-20T07:42:45.600Z,101829.28
2023-05-20T07:45:15.403Z,101851.75
2023-05-20T07:47:45.362Z,101840.88
2023-05-20T07:50:15.609Z,101826.75
2023-05-20T07:52:55.849Z,101840.59
2023-05-20T07:55:31.402Z,101838.84
2023-05-20T07:58:01.498Z,101803.97
2023-05-20T08:00:31.667Z,101829.34
2023-05-20T08:03:05.806Z,101835.63
2023-05-20T08:05:48.350Z,101799.44
2023-05-20T08:08:18.480Z,101824.78
2023-05-20T08:10:59.696Z,101822.69
2023-05-20T08:13:30.700Z,101834.19
2023-05-20T08:16:04.151Z,101830.78
2023-05-20T08:18:34.351Z,101815.28
2023-05-20T08:21:04.177Z,101826.75
2023-05-20T08:23:36.789Z,101818.19
2023-05-20T08:26:11.638Z,101774.84
2023-05-20T08:28:44.564Z,101816.19
2023-05-20T08:31:14.624Z,101813.31
2023-05-20T08:33:44.474Z,101815.09
2023-05-20T08:36:14.324Z,101805.97
2023-05-20T08:38:44.115Z,101813.06
2023-05-20T08:41:16.503Z,101790.59
2023-05-20T08:43:49.223Z,101819.00
2023-05-20T08:46:20.421Z,101820.00
2023-05-20T08:48:51.003Z,101820.97
2023-05-20T08:51:24.218Z,101799.41
2023-05-20T08:53:54.471Z,101796.13
2023-05-20T08:56:30.072Z,101806.50
2023-05-20T08:59:00.950Z,101804.88
2023-05-20T09:01:30.945Z,101799.88
2023-05-20T09:04:00.727Z,101803.22
2023-05-20T09:06:30.488Z,101790.25
2023-05-20T09:09:00.280Z,101797.19
2023-05-20T09:11:33.628Z,101790.47
2023-05-20T09:14:03.398Z,101797.50
2023-05-20T09:16:33.260Z,101800.16
2023-05-20T09:19:03.170Z,101783.81
2023-05-20T09:21:33.435Z,101798.50
2023-05-20T09:24:05.002Z,101779.53
2023-05-20T09:26:37.334Z,101800.31
2023-05-20T09:29:08.454Z,101796.88
2023-05-20T09:31:39.752Z,101800.38
2023-05-20T09:34:09.889Z,101792.53
2023-05-20T09:36:42.424Z,101805.44
2023-05-20T09:39:16.741Z,101788.94
2023-05-20T09:41:55.855Z,101798.41
2023-05-20T09:44:25.915Z,101754.28
2023-05-20T09:46:56.648Z,101796.63
2023-05-20T09:49:28.090Z,101773.19
2023-05-20T09:51:59.429Z,101766.41
2023-05-20T09:54:30.817Z,101783.78
2023-05-20T09:57:03.324Z,101794.91
2023-05-20T09:59:34.475Z,101798.38
2023-05-20T10:02:04.418Z,101770.69
2023-05-20T10:04:36.164Z,101743.94
2023-05-20T10:07:40.696Z,101778.63
2023-05-20T10:10:22.727Z,101762.94
2023-05-20T10:13:04.613Z,101788.72
2023-05-20T10:15:44.602Z,101775.59
2023-05-20T10:18:24.669Z,101779.97
2023-05-20T10:20:54.533Z,101779.97
2023-05-20T10:23:26.273Z,101780.88
2023-05-20T10:25:57.091Z,101777.47
2023-05-20T10:28:37.221Z,101781.78
2023-05-20T10:31:20.034Z,101780.03
2023-05-20T10:33:50.933Z,101787.72
2023-05-20T10:36:29.287Z,101786.78
2023-05-20T10:39:00.885Z,101781.19
2023-05-20T10:41:32.097Z,101769.53
2023-05-20T10:44:09.429Z,101775.44
2023-05-20T10:47:00.028Z,101765.16
2023-05-20T10:49:37.044Z,101778.19
2023-05-20T10:52:07.508Z,101776.47
2023-05-20T10:54:39.345Z,101779.81
2023-05-20T10:57:10.880Z,101775.59
2023-05-20T10:59:43.830Z,101756.72
2023-05-20T11:02:14.769Z,101755.84
2023-05-20T11:04:46.844Z,101746.44
2023-05-20T11:07:17.051Z,101780.09
2023-05-20T11:09:52.735Z,101781.81
2023-05-20T11:12:24.725Z,101780.03
2023-05-20T11:14:57.545Z,101766.22
2023-05-20T11:17:27.316Z,101770.53
2023-05-20T11:19:57.117Z,101770.50
2023-05-20T11:22:26.882Z,101762.78
2023-05-20T11:24:56.701Z,101757.03
2023-05-20T11:27:26.469Z,101747.53
2023-05-20T11:29:58.898Z,101732.63
2023-05-20T11:32:29.088Z,101749.81
2023-05-20T11:34:59.370Z,101728.06
2023-05-20T11:37:29.443Z,101742.91
2023-05-20T11:40:10.529Z,101733.53
2023-05-20T11:42:40.291Z,101737.94
2023-05-20T11:45:16.532Z,101735.34
2023-05-20T11:47:46.342Z,101697.34
2023-05-20T11:50:20.827Z,101727.59
2023-05-20T11:53:00.260Z,101723.25
2023-05-20T11:55:30.179Z,101690.19
2023-05-20T11:58:02.321Z,101685.69
2023-05-20T12:00:49.381Z,101722.97
2023-05-20T12:03:22.136Z,101716.13
2023-05-20T12:05:52.412Z,101696.34
2023-05-20T12:08:23.453Z,101702.59
2023-05-20T12:10:53.437Z,101700.03
2023-05-20T12:13:24.009Z,101697.38
2023-05-20T12:15:56.470Z,101686.22
2023-05-20T12:18:26.288Z,101657.81
2023-05-20T12:20:56.095Z,101690.59
2023-05-20T12:23:26.638Z,101679.34
2023-05-20T12:25:56.570Z,101676.75
2023-05-20T12:28:26.350Z,101687.19
2023-05-20T12:30:58.701Z,101666.53
2023-05-20T12:33:28.468Z,101670.84
2023-05-20T12:35:58.318Z,101639.81
2023-05-20T12:38:28.237Z,101663.97
2023-05-20T12:40:58.060Z,101653.59
2023-05-20T12:43:27.813Z,101668.28
2023-05-20T12:46:00.318Z,101666.56
2023-05-20T12:48:30.127Z,101659.66
2023-05-20T12:51:00.015Z,101656.19
2023-05-20T12:53:29.772Z,101646.66
2023-05-20T12:55:59.582Z,101651.84
2023-05-20T12:58:29.493Z,101650.13
2023-05-20T13:01:01.873Z,101602.63
2023-05-20T13:03:31.809Z,101638.13
2023-05-20T13:06:02.113Z,101637.25
2023-05-20T13:08:31.883Z,101643.28
2023-05-20T13:11:01.643Z,101641.56
2023-05-20T13:13:31.453Z,101620.84
2023-05-20T13:16:03.812Z,101627.75
2023-05-20T13:18:33.584Z,101629.47
2023-05-20T13:21:03.353Z,101629.47
2023-05-20T13:23:33.424Z,101622.59
2023-05-20T13:26:03.248Z,101591.53
2023-05-20T13:28:32.996Z,101560.47
2023-05-20T13:31:05.999Z,101614.78
2023-05-20T13:33:35.897Z,101582.06
2023-05-20T13:36:05.933Z,101610.47
2023-05-20T13:38:37.223Z,101607.03
2023-05-20T13:41:07.886Z,101615.69
2023-05-20T13:43:37.677Z,101612.19
2023-05-20T13:46:10.226Z,101609.63
2023-05-20T13:48:40.024Z,101610.50
2023-05-20T13:51:09.800Z,101607.91
2023-05-20T13:53:39.598Z,101579.47
2023-05-20T13:56:09.537Z,101586.34
2023-05-20T13:58:39.611Z,101595.00
2023-05-20T14:01:12.745Z,101572.56
2023-05-20T14:03:43.230Z,101588.09
2023-05-20T14:06:15.180Z,101564.81
2023-05-20T14:08:45.444Z,101594.97
2023-05-20T14:11:15.433Z,101596.66
2023-05-20T14:13:45.244Z,101600.13
2023-05-20T14:16:17.758Z,101587.16
2023-05-20T14:18:47.664Z,101591.50
2023-05-20T14:21:17.503Z,101585.44
2023-05-20T14:23:47.346Z,101594.03
2023-05-20T14:26:17.178Z,101582.88
2023-05-20T14:28:47.196Z,101582.00
2023-05-20T14:31:19.768Z,101585.41
2023-05-20T14:33:50.000Z,101556.97
2023-05-20T14:36:20.753Z,101574.22
2023-05-20T14:38:51.442Z,101553.56
2023-05-20T14:41:22.721Z,101552.75
2023-05-20T14:43:53.450Z,101561.38
2023-05-20T14:46:26.879Z,101567.38
2023-05-20T14:48:57.616Z,101559.63
2023-05-20T14:51:28.192Z,101569.97
2023-05-20T14:54:00.314Z,101569.97
2023-05-20T14:56:31.404Z,101561.34
2023-05-20T14:59:04.338Z,101526.88
2023-05-20T15:01:38.936Z,101550.13
2023-05-20T15:04:09.780Z,101560.47
2023-05-20T15:06:41.953Z,101538.94
2023-05-20T15:09:12.699Z,101563.94
2023-05-20T15:11:42.859Z,101550.13
2023-05-20T15:14:13.668Z,101553.56
2023-05-20T15:16:47.447Z,101549.25
2023-05-20T15:19:17.721Z,101565.63
2023-05-20T15:21:49.825Z,101561.34
2023-05-20T15:24:20.011Z,101556.19
2023-05-20T15:26:50.476Z,101569.97
2023-05-20T15:29:21.281Z,101563.94
2023-05-20T15:31:54.242Z,101542.34
2023-05-20T15:34:24.639Z,101556.16
2023-05-20T15:36:55.327Z,101534.66
2023-05-20T15:39:26.525Z,101565.66
2023-05-20T15:41:56.947Z,101551.81
2023-05-20T15:44:29.034Z,101556.13
2023-05-20T15:47:02.690Z,101561.28
2023-05-20T15:49:33.283Z,101512.16
2023-05-20T15:52:04.436Z,101552.69
2023-05-20T15:54:35.087Z,101527.66
2023-05-20T15:57:05.737Z,101538.91
2023-05-20T15:59:36.363Z,101535.44
2023-05-20T16:02:09.764Z,101519.94
2023-05-20T16:04:40.397Z,101514.78
2023-05-20T16:07:10.959Z,101541.47
2023-05-20T16:09:41.368Z,101541.47
2023-05-20T16:12:14.899Z,101544.94
2023-05-20T16:14:45.567Z,101539.75
2023-05-20T16:17:21.483Z,101538.91
2023-05-20T16:19:52.428Z,101524.22
2023-05-20T16:22:23.010Z,101509.59
2023-05-20T16:24:55.615Z,101522.53
2023-05-20T16:27:26.320Z,101517.34
2023-05-20T16:29:56.948Z,101469.94
2023-05-20T16:32:30.185Z,101486.31
2023-05-20T16:35:02.015Z,101525.13
2023-05-20T16:37:32.641Z,101459.63
2023-05-20T16:40:03.613Z,101513.91
2023-05-20T16:42:34.286Z,101514.78
2023-05-20T16:45:04.720Z,101519.09
2023-05-20T16:47:37.852Z,101511.34
2023-05-20T16:50:09.585Z,101512.19
2023-05-20T16:52:42.201Z,101506.16
2023-05-20T16:55:15.868Z,101513.06
2023-05-20T16:57:47.736Z,101495.81
2023-05-20T17:00:18.880Z,101470.81
2023-05-20T17:02:51.635Z,101494.09
2023-05-20T17:05:21.637Z,101477.72
2023-05-20T17:07:51.781Z,101481.16
2023-05-20T17:10:21.719Z,101482.03
2023-05-20T17:12:51.779Z,101445.81
2023-05-20T17:15:23.647Z,101473.41
2023-05-20T17:17:56.271Z,101462.22
2023-05-20T17:20:26.146Z,101485.50
2023-05-20T17:22:55.942Z,101482.03
2023-05-20T17:25:28.529Z,101480.28
2023-05-20T17:27:58.293Z,101480.28
2023-05-20T17:30:28.153Z,101489.75
2023-05-20T17:33:00.855Z,101485.47
2023-05-20T17:35:31.847Z,101460.47
2023-05-20T17:38:01.643Z,101498.38
2023-05-20T17:40:31.632Z,101475.09
2023-05-20T17:43:01.483Z,101476.81
2023-05-20T17:45:31.412Z,101469.91
2023-05-20T17:48:08.203Z,101483.72
2023-05-20T17:50:40.615Z,101446.63
2023-05-20T17:53:10.513Z,101486.28
2023-05-20T17:55:40.305Z,101475.94
2023-05-20T17:58:10.355Z,101480.22
2023-05-20T18:00:42.306Z,101449.22
2023-05-20T18:03:14.859Z,101490.56
2023-05-20T18:05:44.671Z,101502.66
2023-05-20T18:08:14.620Z,101494.00
2023-05-20T18:10:44.466Z,101505.22
2023-05-20T18:13:14.271Z,101504.31
2023-05-20T18:15:44.106Z,101506.97
2023-05-20T18:18:16.498Z,101506.03
2023-05-20T18:20:46.310Z,101511.16
2023-05-20T18:23:16.187Z,101505.13
2023-05-20T18:25:46.743Z,101492.25
2023-05-20T18:28:16.746Z,101486.19
2023-05-20T18:30:46.518Z,101494.78
2023-05-20T18:33:18.974Z,101504.31
2023-05-20T18:35:48.802Z,101512.88
2023-05-20T18:38:18.620Z,101499.94
2023-05-20T18:40:48.739Z,101511.09
2023-05-20T18:43:18.550Z,101511.94
2023-05-20T18:45:48.505Z,101491.25
2023-05-20T18:48:26.651Z,101499.03
2023-05-20T18:50:58.733Z,101499.00
2023-05-20T18:53:28.601Z,101506.78
2023-05-20T18:56:03.162Z,101492.94
2023-05-20T18:58:32.973Z,101482.56
2023-05-20T19:01:02.903Z,101479.13
2023-05-20T19:03:35.346Z,101492.88
2023-05-20T19:06:05.267Z,101498.06
2023-05-20T19:08:35.509Z,101506.69
2023-05-20T19:11:05.342Z,101485.09
2023-05-20T19:13:35.140Z,101507.47
2023-05-20T19:16:05.330Z,101516.09
2023-05-20T19:18:37.730Z,101505.75
2023-05-20T19:21:07.640Z,101511.72
2023-05-20T19:23:37.461Z,101511.69
2023-05-20T19:26:07.566Z,101508.22
2023-05-20T19:28:37.447Z,101477.13
2023-05-20T19:31:07.388Z,101475.31
2023-05-20T19:33:40.559Z,101477.94
2023-05-20T19:36:10.384Z,101487.34
2023-05-20T19:38:41.768Z,101505.38
2023-05-20T19:41:12.155Z,101502.81
2023-05-20T19:43:42.093Z,101419.03
2023-05-20T19:46:11.899Z,101493.16
2023-05-20T19:48:44.416Z,101502.53
2023-05-20T19:51:15.580Z,101509.44
2023-05-20T19:53:45.690Z,101517.13
2023-05-20T19:56:19.474Z,101517.97
2023-05-20T19:58:49.297Z,101498.09
2023-05-20T20:01:20.488Z,101514.47
2023-05-20T20:03:54.068Z,101519.69
2023-05-20T20:06:23.884Z,101488.53
2023-05-20T20:08:53.678Z,101511.84
2023-05-20T20:11:23.908Z,101507.53
2023-05-20T20:13:53.673Z,101453.09
2023-05-20T20:16:23.638Z,101496.22
2023-05-20T20:18:56.155Z,101485.88
2023-05-20T20:21:26.045Z,101475.50
2023-05-20T20:23:56.212Z,101504.03
2023-05-20T20:26:26.112Z,101498.00
2023-05-20T20:28:56.003Z,101491.91
2023-05-20T20:31:26.669Z,101437.06
2023-05-20T20:33:59.042Z,101499.00
2023-05-20T20:36:31.965Z,101469.53
2023-05-20T20:39:02.911Z,101474.81
2023-05-20T20:41:32.779Z,101477.47
2023-05-20T20:44:03.660Z,101492.09
2023-05-20T20:46:33.553Z,101492.97
2023-05-20T20:49:06.133Z,101489.59
2023-05-20T20:51:36.225Z,101483.53
2023-05-20T20:54:06.771Z,101486.09
2023-05-20T20:56:37.414Z,101455.03
2023-05-20T20:59:07.447Z,101483.53
2023-05-20T21:01:38.062Z,101468.75
2023-05-20T21:04:13.773Z,101486.94
2023-05-20T21:06:46.103Z,101482.56
2023-05-20T21:09:16.333Z,101485.06
2023-05-20T21:11:49.537Z,101485.00
2023-05-20T21:14:19.334Z,101466.00
2023-05-20T21:16:49.181Z,101460.75
2023-05-20T21:19:21.658Z,101481.44
2023-05-20T21:21:51.452Z,101467.59
2023-05-20T21:24:21.449Z,101472.66
2023-05-20T21:26:51.257Z,101466.59
2023-05-20T21:29:21.037Z,101475.25
2023-05-20T21:31:51.360Z,101477.78
2023-05-20T21:34:23.759Z,101425.91
2023-05-20T21:36:53.570Z,101445.75
2023-05-20T21:39:23.426Z,101467.88
2023-05-20T21:41:53.289Z,101458.50
2023-05-20T21:44:23.136Z,101469.78
2023-05-20T21:46:53.047Z,101455.09
2023-05-20T21:49:25.647Z,101446.59
2023-05-20T21:51:55.468Z,101455.94
2023-05-20T21:54:25.232Z,101439.44
2023-05-20T21:56:55.026Z,101461.09
2023-05-20T21:59:24.816Z,101454.28
2023-05-20T22:01:56.203Z,101452.59
2023-05-20T22:04:28.716Z,101434.44
2023-05-20T22:06:58.933Z,101433.56
2023-05-20T22:09:28.745Z,101437.84
2023-05-20T22:11:59.965Z,101445.59
2023-05-20T22:14:29.900Z,101436.16
2023-05-20T22:16:59.718Z,101445.72
2023-05-20T22:19:32.568Z,101411.31
2023-05-20T22:22:02.578Z,101435.44
2023-05-20T22:24:32.388Z,101416.44
2023-05-20T22:27:02.166Z,101368.84
2023-05-20T22:29:32.702Z,101434.41
2023-05-20T22:32:02.652Z,101426.59
2023-05-20T22:34:35.056Z,101395.47
2023-05-20T22:37:07.218Z,101415.44
2023-05-20T22:39:37.097Z,101340.38
2023-05-20T22:42:07.341Z,101410.19
2023-05-20T22:44:37.145Z,101390.41
2023-05-20T22:47:06.980Z,101382.56
2023-05-20T22:49:40.516Z,101403.31
2023-05-20T22:52:10.678Z,101398.13
2023-05-20T22:54:40.485Z,101381.66
2023-05-20T22:57:10.324Z,101379.88
2023-05-20T22:59:40.545Z,101390.25
2023-05-20T23:02:10.743Z,101304.97
2023-05-20T23:04:43.205Z,101364.50
2023-05-20T23:07:15.052Z,101348.91
2023-05-20T23:09:44.972Z,101370.53
2023-05-20T23:12:14.984Z,101340.41
2023-05-20T23:14:44.957Z,101367.16
2023-05-20T23:17:14.762Z,101336.09
2023-05-20T23:19:47.436Z,101382.75
2023-05-20T23:22:17.520Z,101354.31
2023-05-20T23:24:47.512Z,101356.91
2023-05-20T23:27:17.386Z,101370.66
2023-05-20T23:29:47.567Z,101338.69
2023-05-20T23:32:17.491Z,101373.13
2023-05-20T23:34:51.495Z,101357.66
2023-05-20T23:37:21.469Z,101347.25
2023-05-20T23:39:51.439Z,101372.19
2023-05-20T23:42:21.257Z,101370.41
2023-05-20T23:44:51.219Z,101089.88
2023-05-20T23:47:21.072Z,101328.13
2023-05-20T23:49:53.486Z,101349.03
2023-05-20T23:52:23.315Z,101343.78
2023-05-20T23:54:53.224Z,101348.94
2023-05-20T23:57:23.330Z,101341.16
2023-05-20T23:59:53.224Z,101344.66
